Time;durP1;ratioP1;P1;durP2;ratioP2;P2;SDS_P1;SDS_P2;PMS_P1;PMS_P2;Temp;Humidity;BMP_temperature;BMP_pressure;BME280_temperature;BME280_humidity;BME280_pressure;Samples;Min_cycle;Max_cycle;Signal;HPM_P1;HPM_P2
2023/07/15 00:00:52;;;;;;;2.25;1.70;;;25.20;55.00;;;;;;5057544;28;20033;-78
2023/07/15 00:03:21;;;;;;;2.55;1.80;;;25.10;55.00;;;;;;5057626;28;20025;-78
2023/07/15 00:05:49;;;;;;;2.20;1.67;;;25.10;55.00;;;;;;5057332;28;20025;-78
2023/07/15 00:08:15;;;;;;;1.80;1.65;;;25.10;55.00;;;;;;5057585;28;20064;-78
2023/07/15 00:10:44;;;;;;;2.05;1.70;;;25.10;55.00;;;;;;5074682;28;20044;-78
2023/07/15 00:13:15;;;;;;;2.53;1.90;;;25.10;55.00;;;;;;5075121;28;20115;-78
2023/07/15 00:15:43;;;;;;;2.83;1.75;;;25.10;55.10;;;;;;5057414;28;20017;-79
2023/07/15 00:18:14;;;;;;;2.22;1.60;;;25.00;55.00;;;;;;5074982;28;20106;-78
2023/07/15 00:20:47;;;;;;;2.72;1.85;;;25.00;55.00;;;;;;5041533;28;20038;-79
2023/07/15 00:23:25;;;;;;;3.65;1.65;;;25.00;55.00;;;;;;5058093;28;20032;-79
2023/07/15 00:25:53;;;;;;;2.65;1.73;;;25.00;55.10;;;;;;5075451;28;20025;-78
2023/07/15 00:28:21;;;;;;;2.08;1.50;;;25.00;55.10;;;;;;5057212;28;20029;-76
2023/07/15 00:30:50;;;;;;;2.38;1.70;;;24.90;55.00;;;;;;5075203;28;20456;-78
2023/07/15 00:33:16;;;;;;;1.90;1.60;;;24.90;55.00;;;;;;5075307;28;20068;-78
2023/07/15 00:35:45;;;;;;;2.50;1.80;;;24.80;55.00;;;;;;5056782;28;20028;-80
2023/07/15 00:38:12;;;;;;;1.75;1.52;;;24.90;55.00;;;;;;5057303;28;20028;-77
2023/07/15 00:40:48;;;;;;;2.88;1.88;;;24.90;55.00;;;;;;5074793;28;20162;-77
2023/07/15 00:43:52;;;;;;;2.53;1.75;;;24.80;55.00;;;;;;5057118;28;20035;-77
2023/07/15 00:46:18;;;;;;;1.85;1.42;;;24.80;55.00;;;;;;5056775;28;20118;-78
2023/07/15 00:48:51;;;;;;;2.75;1.63;;;24.80;55.00;;;;;;5056711;28;20552;-77
2023/07/15 00:51:16;;;;;;;2.25;1.55;;;24.80;55.00;;;;;;5074542;28;20518;-77
2023/07/15 00:53:43;;;;;;;2.85;1.73;;;24.80;55.00;;;;;;5007430;28;20029;-77
2023/07/15 00:56:09;;;;;;;1.60;1.45;;;24.80;55.00;;;;;;5039930;28;20024;-78
2023/07/15 00:58:36;;;;;;;1.92;1.70;;;24.70;55.00;;;;;;5023721;28;20033;-78
2023/07/15 01:01:02;;;;;;;1.52;1.40;;;24.70;55.00;;;;;;5056421;28;20079;-77
2023/07/15 01:03:28;;;;;;;1.98;1.48;;;24.70;55.00;;;;;;5056434;28;20086;-79
2023/07/15 01:05:55;;;;;;;2.13;1.50;;;24.70;55.00;;;;;;5074311;28;20033;-77
2023/07/15 01:08:21;;;;;;;2.15;1.33;;;24.70;55.00;;;;;;5056703;28;20460;-77
2023/07/15 01:10:47;;;;;;;2.42;1.60;;;24.60;55.00;;;;;;5056209;28;20029;-77
2023/07/15 01:13:13;;;;;;;2.05;1.60;;;24.60;54.90;;;;;;5039754;28;20083;-77
2023/07/15 01:15:39;;;;;;;1.75;1.23;;;24.60;55.00;;;;;;5056657;28;20035;-79
2023/07/15 01:18:06;;;;;;;2.78;1.70;;;24.60;55.00;;;;;;5056540;28;20044;-77
2023/07/15 01:20:32;;;;;;;2.33;1.67;;;24.60;55.00;;;;;;5073877;28;20086;-79
2023/07/15 01:22:58;;;;;;;2.70;1.70;;;24.60;55.00;;;;;;5056910;28;20419;-77
2023/07/15 01:25:24;;;;;;;1.50;1.27;;;24.60;55.00;;;;;;5039471;28;20033;-78
2023/07/15 01:27:50;;;;;;;1.90;1.30;;;24.60;55.00;;;;;;5073704;28;20068;-77
2023/07/15 01:30:16;;;;;;;1.60;1.40;;;24.60;55.00;;;;;;5055979;28;20048;-77
2023/07/15 01:32:42;;;;;;;1.83;1.40;;;24.50;55.00;;;;;;5072520;28;20040;-77
2023/07/15 01:35:08;;;;;;;1.52;1.30;;;24.50;55.00;;;;;;5056602;28;20025;-77
2023/07/15 01:37:34;;;;;;;1.77;1.48;;;24.50;55.00;;;;;;5039505;28;20476;-78
2023/07/15 01:40:00;;;;;;;1.75;1.30;;;24.50;55.10;;;;;;5055864;28;20047;-77
2023/07/15 01:42:26;;;;;;;2.00;1.40;;;24.50;55.00;;;;;;5006589;28;20417;-78
2023/07/15 01:44:52;;;;;;;1.60;1.27;;;24.50;55.10;;;;;;5039953;28;20055;-77
2023/07/15 01:47:18;;;;;;;1.75;1.45;;;24.50;55.10;;;;;;5055725;28;20384;-78
2023/07/15 01:49:43;;;;;;;1.80;1.40;;;24.40;55.00;;;;;;5072282;28;20118;-78
2023/07/15 01:52:10;;;;;;;1.42;1.23;;;24.40;55.00;;;;;;5039085;28;20455;-78
2023/07/15 01:54:36;;;;;;;2.03;1.38;;;24.40;55.10;;;;;;5074060;28;20082;-78
2023/07/15 01:57:02;;;;;;;2.10;1.40;;;24.40;55.10;;;;;;5039420;28;20232;-77
2023/07/15 01:59:28;;;;;;;1.70;1.40;;;24.40;55.10;;;;;;5055551;28;20033;-77
2023/07/15 02:01:58;;;;;;;1.70;1.40;;;24.40;55.10;;;;;;5038860;28;20102;-79
2023/07/15 02:04:24;;;;;;;1.55;1.40;;;24.40;55.10;;;;;;5055740;28;20115;-78
2023/07/15 02:06:50;;;;;;;2.95;1.65;;;24.40;55.10;;;;;;5055569;28;20123;-79
2023/07/15 02:09:16;;;;;;;1.33;1.23;;;24.40;55.10;;;;;;5039144;28;20062;-78
2023/07/15 02:11:42;;;;;;;1.80;1.45;;;24.30;55.10;;;;;;5055406;28;20033;-78
2023/07/15 02:14:10;;;;;;;1.55;1.42;;;24.30;55.10;;;;;;5039333;28;20127;-78
2023/07/15 02:16:36;;;;;;;1.70;1.40;;;24.40;55.20;;;;;;5038626;28;20032;-78
2023/07/15 02:19:02;;;;;;;1.67;1.48;;;24.30;55.20;;;;;;5039511;28;20110;-78
2023/07/15 02:21:28;;;;;;;1.67;1.30;;;24.30;55.10;;;;;;5038697;28;20036;-77
2023/07/15 02:23:55;;;;;;;1.73;1.40;;;24.30;55.10;;;;;;5039498;28;20074;-77
2023/07/15 02:26:21;;;;;;;1.25;1.15;;;24.30;55.20;;;;;;5055987;28;20494;-78
2023/07/15 02:28:47;;;;;;;1.67;1.30;;;24.30;55.10;;;;;;5005904;28;20115;-78
2023/07/15 02:31:13;;;;;;;1.30;1.20;;;24.20;55.10;;;;;;5054864;28;20117;-77
2023/07/15 02:33:38;;;;;;;1.73;1.52;;;24.20;55.10;;;;;;5055563;28;20040;-78
2023/07/15 02:36:05;;;;;;;1.70;1.60;;;24.20;55.10;;;;;;5059416;28;20032;-78
2023/07/15 02:38:33;;;;;;;1.35;1.25;;;24.20;55.20;;;;;;5059083;28;20037;-77
2023/07/15 02:40:59;;;;;;;1.50;1.20;;;24.20;55.20;;;;;;5042935;28;20041;-78
2023/07/15 02:43:25;;;;;;;1.20;1.10;;;24.20;55.20;;;;;;5059097;28;20029;-79
2023/07/15 02:45:51;;;;;;;1.35;1.15;;;24.20;55.20;;;;;;5075688;28;20036;-78
2023/07/15 02:48:19;;;;;;;1.75;1.20;;;24.10;55.80;;;;;;5059371;28;20491;-77
2023/07/15 02:50:52;;;;;;;1.05;1.00;;;24.10;55.10;;;;;;5038838;28;20053;-78
2023/07/15 02:53:18;;;;;;;1.52;1.30;;;24.10;55.20;;;;;;5055678;28;20051;-78
2023/07/15 02:55:45;;;;;;;1.30;1.20;;;24.10;55.20;;;;;;5055370;28;20025;-78
2023/07/15 02:58:13;;;;;;;1.90;1.40;;;24.10;55.20;;;;;;5055537;28;20033;-78
2023/07/15 03:00:39;;;;;;;1.20;1.10;;;24.10;55.20;;;;;;5055511;28;20072;-79
2023/07/15 03:03:04;;;;;;;1.52;1.33;;;24.10;55.20;;;;;;5055677;28;20028;-78
2023/07/15 03:05:32;;;;;;;1.17;1.05;;;24.00;55.20;;;;;;5055720;28;20060;-78
2023/07/15 03:07:58;;;;;;;1.20;1.10;;;24.00;55.20;;;;;;5038739;28;20025;-78
2023/07/15 03:10:24;;;;;;;1.75;1.38;;;24.00;55.20;;;;;;5055308;28;20040;-78
2023/07/15 03:12:50;;;;;;;1.52;1.27;;;24.00;55.20;;;;;;5022372;28;20037;-78
2023/07/15 03:15:17;;;;;;;1.98;1.45;;;24.00;55.20;;;;;;5055444;28;20044;-78
2023/07/15 03:17:43;;;;;;;2.05;1.45;;;24.00;55.30;;;;;;5039334;28;20028;-78
2023/07/15 03:20:20;;;;;;;1.23;1.08;;;24.00;55.30;;;;;;5056552;28;20029;-78
2023/07/15 03:22:51;;;;;;;1.35;1.25;;;24.00;55.30;;;;;;5072366;28;20021;-78
2023/07/15 03:25:19;;;;;;;1.30;1.20;;;24.00;55.30;;;;;;5055148;28;20020;-79
2023/07/15 03:27:46;;;;;;;1.77;1.27;;;23.90;55.20;;;;;;5055999;28;20521;-78
2023/07/15 03:30:12;;;;;;;1.13;1.02;;;23.90;55.30;;;;;;5055213;28;20413;-77
2023/07/15 03:32:39;;;;;;;1.27;1.10;;;23.90;55.30;;;;;;5055016;28;20086;-79
2023/07/15 03:35:08;;;;;;;1.63;1.20;;;23.90;55.30;;;;;;5055065;28;20404;-79
2023/07/15 03:37:35;;;;;;;1.30;1.20;;;23.90;55.30;;;;;;5054979;28;20029;-79
2023/07/15 03:40:10;;;;;;;1.30;1.20;;;23.80;55.30;;;;;;5056251;28;20024;-78
2023/07/15 03:42:41;;;;;;;1.42;1.33;;;23.80;55.30;;;;;;5058689;28;20021;-78
2023/07/15 03:45:07;;;;;;;2.70;1.73;;;23.80;55.30;;;;;;5044469;28;20025;-78
2023/07/15 03:47:36;;;;;;;1.42;1.10;;;23.80;55.30;;;;;;5061469;28;20433;-78
2023/07/15 03:50:04;;;;;;;1.40;1.30;;;23.80;55.30;;;;;;5042138;28;20087;-78
2023/07/15 03:52:30;;;;;;;1.42;1.30;;;23.80;55.40;;;;;;5056228;28;20056;-78
2023/07/15 03:54:58;;;;;;;1.10;1.00;;;23.80;55.40;;;;;;5038877;28;20067;-79
2023/07/15 03:57:23;;;;;;;1.20;1.10;;;23.70;55.40;;;;;;5055433;28;20029;-77
2023/07/15 03:59:49;;;;;;;1.52;1.20;;;23.80;55.40;;;;;;5071029;28;20033;-77
2023/07/15 04:02:16;;;;;;;1.33;1.23;;;23.70;55.40;;;;;;5037462;28;20116;-76
2023/07/15 04:04:43;;;;;;;1.30;1.20;;;23.70;55.50;;;;;;5055872;28;20040;-76
2023/07/15 04:07:09;;;;;;;1.40;1.08;;;23.70;55.50;;;;;;5037542;28;20036;-77
2023/07/15 04:09:36;;;;;;;1.08;0.90;;;23.70;55.50;;;;;;5054510;28;20044;-77
2023/07/15 04:12:02;;;;;;;1.73;1.20;;;23.70;55.50;;;;;;5054090;28;20029;-78
2023/07/15 04:14:28;;;;;;;1.70;1.30;;;23.60;55.40;;;;;;5054518;28;20424;-77
2023/07/15 04:16:54;;;;;;;2.85;1.35;;;23.60;55.40;;;;;;5037388;28;20036;-78
2023/07/15 04:19:20;;;;;;;1.27;1.17;;;23.60;55.40;;;;;;5053852;28;20075;-78
2023/07/15 04:21:45;;;;;;;2.15;1.38;;;23.60;55.50;;;;;;5053995;28;20032;-79
2023/07/15 04:24:11;;;;;;;1.30;1.20;;;23.60;55.50;;;;;;5055963;28;20057;-79
2023/07/15 04:26:37;;;;;;;1.20;1.10;;;23.60;55.60;;;;;;5037093;28;20036;-79
2023/07/15 04:29:03;;;;;;;1.95;1.52;;;23.60;55.60;;;;;;5053634;28;20029;-77
2023/07/15 04:31:28;;;;;;;1.92;1.33;;;23.50;55.50;;;;;;5054769;28;20029;-79
2023/07/15 04:33:55;;;;;;;1.17;1.05;;;23.60;55.60;;;;;;5037526;28;20033;-78
2023/07/15 04:36:22;;;;;;;1.40;1.30;;;23.50;55.60;;;;;;5020832;28;20125;-78
2023/07/15 04:38:48;;;;;;;1.30;1.00;;;23.50;55.60;;;;;;5037092;28;20484;-79
2023/07/15 04:41:14;;;;;;;1.40;1.25;;;23.50;55.60;;;;;;5053463;28;20037;-77
2023/07/15 04:43:40;;;;;;;1.17;1.08;;;23.50;55.60;;;;;;5053416;28;20082;-78
2023/07/15 04:46:06;;;;;;;1.35;1.25;;;23.50;55.70;;;;;;5053769;28;20032;-79
2023/07/15 04:48:33;;;;;;;1.00;0.95;;;23.50;55.70;;;;;;5036747;28;20103;-78
2023/07/15 04:50:59;;;;;;;1.33;1.20;;;23.50;55.70;;;;;;5053033;28;20151;-78
2023/07/15 04:53:26;;;;;;;1.45;1.30;;;23.50;55.80;;;;;;5053092;28;20040;-77
2023/07/15 04:55:52;;;;;;;1.40;1.27;;;23.50;55.80;;;;;;5054531;28;20083;-78
2023/07/15 04:58:19;;;;;;;1.67;1.20;;;23.50;55.80;;;;;;5020363;28;20035;-78
2023/07/15 05:00:45;;;;;;;1.63;1.30;;;23.50;55.80;;;;;;5053276;28;20068;-79
2023/07/15 05:03:12;;;;;;;1.50;1.13;;;23.50;55.80;;;;;;5053478;28;20119;-77
2023/07/15 05:05:40;;;;;;;1.75;1.20;;;23.50;55.90;;;;;;5054288;28;20025;-79
2023/07/15 05:08:12;;;;;;;2.00;1.60;;;23.50;55.90;;;;;;5036721;28;20029;-78
2023/07/15 05:10:39;;;;;;;1.42;1.27;;;23.50;55.90;;;;;;5053294;28;20547;-78
2023/07/15 05:13:07;;;;;;;1.15;1.00;;;23.50;55.90;;;;;;5053289;28;20488;-78
2023/07/15 05:15:33;;;;;;;1.52;1.40;;;23.40;55.90;;;;;;5053314;28;20077;-78
2023/07/15 05:18:00;;;;;;;1.48;1.17;;;23.40;56.50;;;;;;5053017;28;20025;-78
2023/07/15 05:20:26;;;;;;;1.30;1.20;;;23.40;55.90;;;;;;5053881;28;20033;-78
2023/07/15 05:22:52;;;;;;;1.40;1.25;;;23.40;55.90;;;;;;5052738;28;20017;-78
2023/07/15 05:25:18;;;;;;;1.85;1.40;;;23.40;55.90;;;;;;5052681;28;20029;-77
2023/07/15 05:27:44;;;;;;;1.27;1.17;;;23.40;55.90;;;;;;5052566;28;20029;-78
2023/07/15 05:30:10;;;;;;;1.55;1.40;;;23.40;56.00;;;;;;5053634;28;20040;-77
2023/07/15 05:32:37;;;;;;;1.63;1.30;;;23.40;56.00;;;;;;5036128;28;20128;-79
2023/07/15 05:35:03;;;;;;;1.33;1.15;;;23.40;56.00;;;;;;5035942;28;20029;-77
2023/07/15 05:37:30;;;;;;;2.15;1.40;;;23.40;56.10;;;;;;5035962;28;20098;-77
2023/07/15 05:39:56;;;;;;;1.25;1.15;;;23.40;56.10;;;;;;5053758;28;20091;-77
2023/07/15 05:42:21;;;;;;;1.20;1.10;;;23.40;56.10;;;;;;5052265;28;20029;-77
2023/07/15 05:44:47;;;;;;;1.30;1.20;;;23.40;56.10;;;;;;5052788;28;20111;-77
2023/07/15 05:47:13;;;;;;;1.42;1.33;;;23.40;56.10;;;;;;5053962;28;20037;-77
2023/07/15 05:49:39;;;;;;;1.83;1.40;;;23.40;56.10;;;;;;5035531;28;20474;-77
2023/07/15 05:52:05;;;;;;;1.42;1.33;;;23.40;56.10;;;;;;5035581;28;20049;-78
2023/07/15 05:54:31;;;;;;;1.38;1.20;;;23.40;56.20;;;;;;5019386;28;20039;-77
2023/07/15 05:56:57;;;;;;;1.75;1.27;;;23.40;56.20;;;;;;5053109;28;20032;-78
2023/07/15 05:59:23;;;;;;;1.30;1.20;;;23.40;56.20;;;;;;5052316;28;20102;-78
2023/07/15 06:01:49;;;;;;;1.85;1.35;;;23.40;56.20;;;;;;5053333;28;20033;-78
2023/07/15 06:04:15;;;;;;;1.20;1.10;;;23.40;56.20;;;;;;5035699;28;20389;-77
2023/07/15 06:06:40;;;;;;;1.73;1.30;;;23.40;56.20;;;;;;5035559;28;20040;-78
2023/07/15 06:09:06;;;;;;;1.35;1.25;;;23.40;56.20;;;;;;5052900;28;20035;-78
2023/07/15 06:11:32;;;;;;;1.20;1.10;;;23.40;56.20;;;;;;5051929;28;20458;-76
2023/07/15 06:14:00;;;;;;;1.25;1.15;;;23.40;56.20;;;;;;5052245;28;20029;-77
2023/07/15 06:16:26;;;;;;;1.45;1.25;;;23.50;56.30;;;;;;5052213;28;20036;-79
2023/07/15 06:18:52;;;;;;;1.50;1.10;;;23.50;56.30;;;;;;5035748;28;20393;-77
2023/07/15 06:21:18;;;;;;;1.33;1.20;;;23.50;56.30;;;;;;5035233;28;20033;-77
2023/07/15 06:23:44;;;;;;;1.55;1.42;;;23.50;56.30;;;;;;5035497;28;20560;-79
2023/07/15 06:26:10;;;;;;;1.17;1.08;;;23.50;56.20;;;;;;5052601;28;20102;-80
2023/07/15 06:28:36;;;;;;;1.35;1.08;;;23.50;56.20;;;;;;5053471;28;20099;-80
2023/07/15 06:31:06;;;;;;;1.50;1.40;;;23.50;56.30;;;;;;5052614;28;20037;-79
2023/07/15 06:33:36;;;;;;;1.30;1.20;;;23.50;56.30;;;;;;5052339;28;20075;-79
2023/07/15 06:36:04;;;;;;;1.30;1.20;;;23.50;56.30;;;;;;5053069;28;20086;-76
2023/07/15 06:38:30;;;;;;;1.20;1.10;;;23.50;56.30;;;;;;5035666;28;20030;-78
2023/07/15 06:40:56;;;;;;;1.30;1.20;;;23.50;56.30;;;;;;5052782;28;20041;-78
2023/07/15 06:43:22;;;;;;;1.30;1.20;;;23.50;56.30;;;;;;5052507;28;20168;-78
2023/07/15 06:45:48;;;;;;;1.48;1.20;;;23.60;56.40;;;;;;5035928;28;20464;-77
2023/07/15 06:48:14;;;;;;;2.13;1.30;;;23.60;56.30;;;;;;5051928;28;20123;-79
2023/07/15 06:50:40;;;;;;;1.65;1.38;;;23.60;56.30;;;;;;5038011;28;20063;-80
2023/07/15 06:53:06;;;;;;;1.30;1.20;;;23.60;56.30;;;;;;5054984;28;20037;-77
2023/07/15 06:55:32;;;;;;;1.33;1.23;;;23.60;56.30;;;;;;5038616;28;20128;-76
2023/07/15 06:57:58;;;;;;;1.30;1.20;;;23.70;56.40;;;;;;5038294;28;20111;-78
2023/07/15 07:00:24;;;;;;;1.30;1.20;;;23.70;56.40;;;;;;5054868;28;20117;-76
2023/07/15 07:02:51;;;;;;;1.42;1.27;;;23.70;56.40;;;;;;5073143;28;20036;-78
2023/07/15 07:05:17;;;;;;;0.88;0.88;;;23.70;56.50;;;;;;5055036;28;20025;-78
2023/07/15 07:07:43;;;;;;;1.30;1.20;;;23.70;56.50;;;;;;5021854;28;20036;-78
2023/07/15 07:10:09;;;;;;;1.23;1.13;;;23.80;56.50;;;;;;5055196;28;20028;-78
2023/07/15 07:12:35;;;;;;;1.20;1.10;;;23.80;56.50;;;;;;5073372;28;20036;-80
2023/07/15 07:15:01;;;;;;;1.98;1.20;;;23.80;56.50;;;;;;5054631;28;20158;-79
2023/07/15 07:17:29;;;;;;;1.50;1.25;;;23.80;56.60;;;;;;5022085;28;20112;-79
2023/07/15 07:19:55;;;;;;;1.48;1.10;;;23.80;56.60;;;;;;5038719;28;20039;-80
2023/07/15 07:22:21;;;;;;;1.48;1.38;;;23.80;56.60;;;;;;5058796;28;20457;-79
2023/07/15 07:24:47;;;;;;;2.20;1.30;;;23.90;56.70;;;;;;5041792;28;20032;-79
2023/07/15 07:27:13;;;;;;;1.50;1.05;;;23.90;56.70;;;;;;5041703;28;20101;-79
2023/07/15 07:29:39;;;;;;;1.42;1.30;;;23.90;56.70;;;;;;5041821;28;20067;-75
2023/07/15 07:32:05;;;;;;;1.38;1.27;;;23.90;56.70;;;;;;5042524;28;20072;-78
2023/07/15 07:34:33;;;;;;;1.42;1.30;;;23.90;56.70;;;;;;5041806;28;20043;-79
2023/07/15 07:36:59;;;;;;;1.33;1.20;;;24.00;56.70;;;;;;5041637;28;20028;-78
2023/07/15 07:39:25;;;;;;;1.30;1.17;;;24.00;56.70;;;;;;5042464;28;20032;-79
2023/07/15 07:41:51;;;;;;;1.98;1.10;;;24.00;56.60;;;;;;5041556;28;20461;-78
2023/07/15 07:44:17;;;;;;;2.50;1.20;;;24.10;56.70;;;;;;5058022;28;20028;-77
2023/07/15 07:46:43;;;;;;;1.58;1.25;;;24.10;56.60;;;;;;5041196;28;20040;-78
2023/07/15 07:49:09;;;;;;;1.42;1.20;;;24.20;56.60;;;;;;5041616;28;20025;-78
2023/07/15 07:51:35;;;;;;;2.70;1.23;;;24.20;56.50;;;;;;5041880;28;20141;-77
2023/07/15 07:54:01;;;;;;;1.45;1.20;;;24.30;56.50;;;;;;5057581;28;20056;-77
2023/07/15 07:56:27;;;;;;;2.58;1.23;;;24.40;56.40;;;;;;5040988;28;20021;-76
2023/07/15 07:58:57;;;;;;;1.52;1.10;;;24.40;56.30;;;;;;5077131;28;20059;-78
2023/07/15 08:01:24;;;;;;;1.33;1.23;;;24.50;56.30;;;;;;5082315;28;20100;-76
2023/07/15 08:03:49;;;;;;;1.20;1.10;;;24.60;56.20;;;;;;5049148;28;20032;-79
2023/07/15 08:06:15;;;;;;;1.23;1.13;;;24.60;56.10;;;;;;5067266;28;20457;-78
2023/07/15 08:08:42;;;;;;;2.75;1.30;;;24.70;56.70;;;;;;5045305;28;20078;-77
2023/07/15 08:11:07;;;;;;;1.55;1.23;;;24.80;56.00;;;;;;5078117;28;20035;-81
2023/07/15 08:13:33;;;;;;;1.98;1.33;;;24.80;55.90;;;;;;5059132;28;20124;-77
2023/07/15 08:15:59;;;;;;;1.20;1.10;;;24.90;55.80;;;;;;5057794;28;20032;-78
2023/07/15 08:18:25;;;;;;;1.23;1.08;;;25.00;55.80;;;;;;5057453;28;20029;-78
2023/07/15 08:20:51;;;;;;;1.50;1.00;;;25.10;55.80;;;;;;5057363;28;20035;-77
2023/07/15 08:23:17;;;;;;;1.60;1.20;;;25.10;55.80;;;;;;5074249;28;20400;-77
2023/07/15 08:25:43;;;;;;;1.23;1.00;;;25.20;55.70;;;;;;5057998;28;20122;-78
2023/07/15 08:28:09;;;;;;;1.38;1.27;;;25.20;55.70;;;;;;5040993;28;20538;-79
2023/07/15 08:30:36;;;;;;;1.40;1.30;;;25.30;55.70;;;;;;5040424;28;20044;-81
2023/07/15 08:33:06;;;;;;;1.50;1.05;;;25.40;55.70;;;;;;5056378;28;20046;-77
2023/07/15 08:35:33;;;;;;;1.35;1.20;;;25.50;55.70;;;;;;5057093;28;20029;-76
2023/07/15 08:37:59;;;;;;;1.50;1.35;;;25.50;55.60;;;;;;5041357;28;20407;-76
2023/07/15 08:40:25;;;;;;;1.38;0.95;;;25.60;55.70;;;;;;5075042;28;20059;-79
2023/07/15 08:42:52;;;;;;;1.27;1.17;;;25.60;55.60;;;;;;5057570;28;20025;-78
2023/07/15 08:45:19;;;;;;;1.65;1.40;;;25.70;55.70;;;;;;5057335;28;20024;-79
2023/07/15 08:47:46;;;;;;;1.63;1.20;;;25.70;55.70;;;;;;5074852;28;20036;-78
2023/07/15 08:50:15;;;;;;;1.25;1.08;;;25.80;55.70;;;;;;5056393;28;20032;-78
2023/07/15 08:52:43;;;;;;;1.63;1.23;;;25.80;55.70;;;;;;5040017;28;20063;-79
2023/07/15 08:55:09;;;;;;;1.10;1.00;;;25.90;55.70;;;;;;5074680;28;20017;-79
2023/07/15 08:57:35;;;;;;;1.00;0.90;;;25.90;55.70;;;;;;5074493;28;20115;-78
2023/07/15 09:00:05;;;;;;;1.23;1.13;;;26.00;55.80;;;;;;5073796;28;20024;-78
2023/07/15 09:02:31;;;;;;;1.33;1.00;;;26.00;55.80;;;;;;5057042;28;20044;-79
2023/07/15 09:04:56;;;;;;;1.25;1.10;;;26.10;55.90;;;;;;5039986;28;20033;-76
2023/07/15 09:07:26;;;;;;;1.27;1.15;;;26.10;55.90;;;;;;5073904;28;20112;-79
2023/07/15 09:09:53;;;;;;;1.20;1.00;;;26.20;56.00;;;;;;5040136;28;20135;-78
2023/07/15 09:12:22;;;;;;;1.08;0.98;;;26.20;56.00;;;;;;5056006;28;20055;-80
2023/07/15 09:14:48;;;;;;;2.45;0.98;;;26.20;55.90;;;;;;5074483;28;20024;-82
2023/07/15 09:17:16;;;;;;;1.45;1.10;;;26.30;55.90;;;;;;5039657;28;20032;-81
2023/07/15 09:19:43;;;;;;;1.08;0.98;;;26.30;55.90;;;;;;5056539;28;20078;-81
2023/07/15 09:22:09;;;;;;;0.98;0.90;;;26.30;56.00;;;;;;5040036;28;20457;-80
2023/07/15 09:24:39;;;;;;;1.30;1.13;;;26.40;56.00;;;;;;5056062;28;20098;-80
2023/07/15 09:27:06;;;;;;;1.23;1.10;;;26.40;55.90;;;;;;5073687;28;20108;-81
2023/07/15 09:29:33;;;;;;;1.00;0.90;;;26.50;55.90;;;;;;5055789;28;20469;-80
2023/07/15 09:31:59;;;;;;;1.35;1.20;;;26.50;55.90;;;;;;5039389;28;20105;-80
2023/07/15 09:34:25;;;;;;;1.45;1.17;;;26.60;55.90;;;;;;5056272;28;20031;-80
2023/07/15 09:36:52;;;;;;;1.33;0.90;;;26.60;55.90;;;;;;5074078;28;20465;-80
2023/07/15 09:39:22;;;;;;;1.05;0.90;;;26.60;55.80;;;;;;5056933;28;20043;-80
2023/07/15 09:42:07;;;;;;;0.85;0.85;;;26.60;55.80;;;;;;5039623;28;20489;-81
2023/07/15 09:44:45;;;;;;;1.30;1.15;;;26.60;55.80;;;;;;5073732;28;20047;-82
2023/07/15 09:47:12;;;;;;;1.05;0.93;;;26.70;55.80;;;;;;5073614;28;20036;-82
2023/07/15 09:49:37;;;;;;;0.98;0.98;;;26.70;55.70;;;;;;5073745;28;20036;-82
2023/07/15 09:52:05;;;;;;;0.80;0.80;;;26.80;55.80;;;;;;5039036;28;20053;-81
2023/07/15 09:54:33;;;;;;;1.23;1.00;;;26.70;55.70;;;;;;5055449;28;20029;-81
2023/07/15 09:57:14;;;;;;;0.98;0.95;;;26.80;55.80;;;;;;5039205;28;20033;-81
2023/07/15 09:59:48;;;;;;;1.20;0.90;;;26.80;56.40;;;;;;5074470;28;20048;-84
2023/07/15 10:02:41;;;;;;;0.90;0.90;;;26.80;55.80;;;;;;5055461;28;20086;-83
2023/07/15 10:05:13;;;;;;;0.90;0.90;;;26.80;55.80;;;;;;5039033;28;20044;-82
2023/07/15 10:07:40;;;;;;;0.82;0.82;;;26.80;55.70;;;;;;5073840;28;20361;-81
2023/07/15 10:10:10;;;;;;;1.23;1.05;;;26.90;55.80;;;;;;5055932;28;20071;-81
2023/07/15 10:12:37;;;;;;;0.85;0.77;;;26.90;55.80;;;;;;5072621;28;20434;-80
2023/07/15 10:15:04;;;;;;;1.20;0.95;;;26.90;55.70;;;;;;5055776;28;20115;-79
2023/07/15 10:17:35;;;;;;;0.80;0.80;;;26.90;55.70;;;;;;5038923;28;20071;-81
2023/07/15 10:20:12;;;;;;;0.90;0.85;;;27.00;55.80;;;;;;5073603;28;20103;-82
2023/07/15 10:22:40;;;;;;;1.17;1.00;;;27.00;55.70;;;;;;5055650;28;20457;-81
2023/07/15 10:25:11;;;;;;;1.05;0.90;;;27.00;55.70;;;;;;5055722;28;20202;-83
2023/07/15 10:27:38;;;;;;;1.05;0.90;;;27.00;55.60;;;;;;5055948;28;20096;-83
2023/07/15 10:30:24;;;;;;;1.23;1.13;;;27.10;55.70;;;;;;5055355;28;20084;-81
2023/07/15 10:33:00;;;;;;;1.75;0.90;;;27.10;55.70;;;;;;5072465;28;20415;-81
2023/07/15 10:35:34;;;;;;;0.90;0.90;;;27.10;55.70;;;;;;5054953;28;20028;-79
2023/07/15 10:38:26;;;;;;;1.02;0.93;;;27.10;55.70;;;;;;5055484;28;20029;-79
2023/07/15 10:41:03;;;;;;;0.90;0.70;;;27.20;55.80;;;;;;5055241;28;20033;-78
2023/07/15 10:43:37;;;;;;;0.77;0.75;;;27.20;55.70;;;;;;5039750;28;20052;-78
2023/07/15 10:46:10;;;;;;;1.20;0.90;;;27.10;55.70;;;;;;5073680;28;20109;-78
2023/07/15 10:48:37;;;;;;;0.85;0.85;;;27.20;55.70;;;;;;5055615;28;20377;-78
2023/07/15 10:51:06;;;;;;;1.10;0.90;;;27.20;55.70;;;;;;5071586;28;20105;-78
2023/07/15 10:53:32;;;;;;;1.40;0.95;;;27.20;55.70;;;;;;5055060;28;20036;-78
2023/07/15 10:56:00;;;;;;;1.13;1.00;;;27.20;55.70;;;;;;5075674;28;20100;-79
2023/07/15 10:58:27;;;;;;;1.20;1.10;;;27.20;55.70;;;;;;5075915;28;20476;-78
2023/07/15 11:01:08;;;;;;;1.42;1.05;;;27.20;55.70;;;;;;5042310;28;20044;-78
2023/07/15 11:03:41;;;;;;;1.55;0.82;;;27.20;55.70;;;;;;5058583;28;20028;-79
2023/07/15 11:06:07;;;;;;;1.00;0.90;;;27.20;55.70;;;;;;5076806;28;20122;-78
2023/07/15 11:08:34;;;;;;;0.90;0.90;;;27.20;55.70;;;;;;5058818;28;20419;-78
2023/07/15 11:11:01;;;;;;;0.98;0.88;;;27.20;55.70;;;;;;5042144;28;20542;-79
2023/07/15 11:13:27;;;;;;;0.80;0.77;;;27.20;55.80;;;;;;5076862;28;20036;-78
2023/07/15 11:15:53;;;;;;;0.93;0.82;;;27.20;55.80;;;;;;5076380;28;20035;-78
2023/07/15 11:18:24;;;;;;;1.08;0.93;;;27.20;55.80;;;;;;5042201;28;20033;-78
2023/07/15 11:20:53;;;;;;;1.00;0.90;;;27.30;55.90;;;;;;5058870;28;20036;-79
2023/07/15 11:23:19;;;;;;;0.75;0.75;;;27.20;55.80;;;;;;5041805;28;20033;-78
2023/07/15 11:25:45;;;;;;;1.33;1.00;;;27.30;55.90;;;;;;5058657;28;20389;-78
2023/07/15 11:28:11;;;;;;;1.10;1.00;;;27.30;55.90;;;;;;5041889;28;20036;-78
2023/07/15 11:30:43;;;;;;;0.88;0.88;;;27.20;55.80;;;;;;5057974;28;20036;-78
2023/07/15 11:33:10;;;;;;;1.45;1.00;;;27.30;55.90;;;;;;5059192;28;20036;-78
2023/07/15 11:35:37;;;;;;;1.08;0.93;;;27.30;55.90;;;;;;5025542;28;20040;-77
2023/07/15 11:38:07;;;;;;;1.42;1.00;;;27.30;55.90;;;;;;5076437;28;20037;-79
2023/07/15 11:40:53;;;;;;;1.17;1.00;;;27.30;55.90;;;;;;5041572;28;20123;-78
2023/07/15 11:43:21;;;;;;;1.13;0.80;;;27.30;55.90;;;;;;5058930;28;20025;-78
2023/07/15 11:45:47;;;;;;;1.60;0.85;;;27.40;55.90;;;;;;5042350;28;20488;-78
2023/07/15 11:48:22;;;;;;;1.00;0.90;;;27.40;55.90;;;;;;5057767;28;20469;-79
2023/07/15 11:50:48;;;;;;;;;;;27.40;55.90;;;;;;5076481;28;20054;-81
2023/07/15 11:53:34;;;;;;;0.95;0.95;;;27.40;55.80;;;;;;5057764;28;19908;-80
2023/07/15 11:56:00;;;;;;;0.98;0.88;;;27.40;55.80;;;;;;5041319;28;20043;-80
2023/07/15 11:58:56;;;;;;;1.10;1.00;;;27.40;55.80;;;;;;5041954;28;20380;-79
2023/07/15 12:01:26;;;;;;;1.05;0.98;;;27.40;55.80;;;;;;5057699;28;20040;-79
2023/07/15 12:03:53;;;;;;;1.50;0.93;;;27.40;55.80;;;;;;5057961;28;20035;-79
2023/07/15 12:06:25;;;;;;;1.83;1.00;;;27.40;55.80;;;;;;5056848;28;20029;-78
2023/07/15 12:09:10;;;;;;;1.05;0.90;;;27.50;55.90;;;;;;5076830;28;20097;-78
2023/07/15 12:11:37;;;;;;;1.40;1.00;;;27.50;55.80;;;;;;5058272;28;20107;-79
2023/07/15 12:14:05;;;;;;;1.30;1.00;;;27.50;55.80;;;;;;5041113;28;20063;-79
2023/07/15 12:16:32;;;;;;;1.30;1.00;;;27.50;55.70;;;;;;5078244;28;20027;-80
2023/07/15 12:19:02;;;;;;;0.93;0.93;;;27.50;55.70;;;;;;5084081;28;20050;-79
2023/07/15 12:21:28;;;;;;;0.98;0.88;;;27.50;55.70;;;;;;5052980;28;20036;-82
2023/07/15 12:23:57;;;;;;;1.20;1.00;;;27.60;55.70;;;;;;5091813;28;20088;-77
2023/07/15 12:26:24;;;;;;;1.20;1.00;;;27.60;55.60;;;;;;5052390;28;20079;-78
2023/07/15 12:28:50;;;;;;;1.02;0.93;;;27.70;55.70;;;;;;5063453;28;20048;-78
2023/07/15 12:31:17;;;;;;;1.30;1.00;;;27.70;55.70;;;;;;5077580;28;20032;-79
2023/07/15 12:33:44;;;;;;;1.00;0.90;;;27.70;55.60;;;;;;5058926;28;20131;-79
2023/07/15 12:36:11;;;;;;;1.48;0.90;;;27.70;55.60;;;;;;5058662;28;20032;-79
2023/07/15 12:38:37;;;;;;;1.00;0.88;;;27.70;55.50;;;;;;5076140;28;20033;-79
2023/07/15 12:41:04;;;;;;;1.13;0.80;;;27.80;55.50;;;;;;5058578;28;20115;-79
2023/07/15 12:43:30;;;;;;;1.27;1.05;;;27.80;55.50;;;;;;5041414;28;20028;-77
2023/07/15 12:45:56;;;;;;;2.10;1.20;;;27.80;55.50;;;;;;5057557;28;20032;-77
2023/07/15 12:48:22;;;;;;;1.42;1.10;;;27.80;55.40;;;;;;5040349;28;20024;-76
2023/07/15 12:50:48;;;;;;;0.90;0.90;;;27.90;55.40;;;;;;5056550;28;20412;-78